createdAt,value
2022-08-25T00:01:42.099Z,18.08
2022-08-25T00:04:12.447Z,18.11
2022-08-25T00:06:43.287Z,18.12
2022-08-25T00:09:15.586Z,18.13
2022-08-25T00:11:44.217Z,18.13
2022-08-25T00:14:14.908Z,18.11
2022-08-25T00:16:43.457Z,18.11
2022-08-25T00:19:14.235Z,18.12
2022-08-25T00:21:42.867Z,18.10
2022-08-25T00:24:13.799Z,18.08
2022-08-25T00:26:45.093Z,18.05
2022-08-25T00:29:13.527Z,18.03
2022-08-25T00:31:41.890Z,17.99
2022-08-25T00:34:14.673Z,17.97
2022-08-25T00:36:43.386Z,17.96
2022-08-25T00:39:13.390Z,17.95
2022-08-25T00:41:43.919Z,17.95
2022-08-25T00:44:14.146Z,17.94
2022-08-25T00:46:47.149Z,17.92
2022-08-25T00:49:24.803Z,17.91
2022-08-25T00:51:56.781Z,17.90
2022-08-25T00:54:29.896Z,17.90
2022-08-25T00:56:59.724Z,17.88
2022-08-25T00:59:28.544Z,17.84
2022-08-25T01:01:59.044Z,17.82
2022-08-25T01:04:27.430Z,17.81
2022-08-25T01:06:55.809Z,17.81
2022-08-25T01:09:25.499Z,17.78
2022-08-25T01:11:54.055Z,17.78
2022-08-25T01:14:24.669Z,17.75
2022-08-25T01:16:54.699Z,17.74
2022-08-25T01:19:23.100Z,17.72
2022-08-25T01:21:54.890Z,17.71
2022-08-25T01:24:31.938Z,17.68
2022-08-25T01:27:00.162Z,17.65
2022-08-25T01:29:28.700Z,17.63
2022-08-25T01:31:59.768Z,17.58
2022-08-25T01:34:30.739Z,17.54
2022-08-25T01:37:01.188Z,17.49
2022-08-25T01:39:33.931Z,17.47
2022-08-25T01:42:29.378Z,17.47
2022-08-25T01:44:57.597Z,17.46
2022-08-25T01:47:25.735Z,17.46
2022-08-25T01:49:53.697Z,17.48
2022-08-25T01:52:28.939Z,17.49
2022-08-25T01:54:56.953Z,17.49
2022-08-25T01:57:25.410Z,17.50
2022-08-25T01:59:53.372Z,17.48
2022-08-25T02:02:24.317Z,17.47
2022-08-25T02:04:54.359Z,17.46
2022-08-25T02:07:24.521Z,17.44
2022-08-25T02:09:52.544Z,17.44
2022-08-25T02:12:20.633Z,17.42
2022-08-25T02:14:48.829Z,17.41
2022-08-25T02:17:17.311Z,17.38
2022-08-25T02:19:45.384Z,17.38
2022-08-25T02:22:16.357Z,17.37
2022-08-25T02:24:45.917Z,17.36
2022-08-25T02:27:13.983Z,17.35
2022-08-25T02:29:42.113Z,17.35
2022-08-25T02:32:11.784Z,17.34
2022-08-25T02:34:41.515Z,17.32
2022-08-25T02:37:09.807Z,17.32
2022-08-25T02:39:37.855Z,17.32
2022-08-25T02:42:07.679Z,17.31
2022-08-25T02:44:35.735Z,17.31
2022-08-25T02:47:03.917Z,17.29
2022-08-25T02:49:33.091Z,17.27
2022-08-25T02:52:01.425Z,17.25
2022-08-25T02:54:29.985Z,17.23
2022-08-25T02:56:58.016Z,17.21
2022-08-25T02:59:27.534Z,17.20
2022-08-25T03:01:55.571Z,17.19
2022-08-25T03:04:23.821Z,17.17
2022-08-25T03:06:51.997Z,17.15
2022-08-25T03:09:20.382Z,17.12
2022-08-25T03:11:48.420Z,17.08
2022-08-25T03:14:16.552Z,17.06
2022-08-25T03:16:46.521Z,17.04
2022-08-25T03:19:14.809Z,17.02
2022-08-25T03:21:42.890Z,16.99
2022-08-25T03:24:10.915Z,16.96
2022-08-25T03:26:54.015Z,16.95
2022-08-25T03:29:22.319Z,16.94
2022-08-25T03:31:52.195Z,16.93
2022-08-25T03:34:21.110Z,16.93
2022-08-25T03:36:52.476Z,16.93
2022-08-25T03:39:22.093Z,16.92
2022-08-25T03:41:50.354Z,16.89
2022-08-25T03:44:19.204Z,16.86
2022-08-25T03:46:49.461Z,16.83
2022-08-25T03:49:22.686Z,16.78
2022-08-25T03:51:52.742Z,16.77
2022-08-25T03:54:24.194Z,16.73
2022-08-25T03:56:52.234Z,16.69
2022-08-25T03:59:20.629Z,16.66
2022-08-25T04:01:54.039Z,16.65
2022-08-25T04:04:24.805Z,16.63
2022-08-25T04:06:53.029Z,16.62
2022-08-25T04:09:21.130Z,16.61
2022-08-25T04:11:51.933Z,16.59
2022-08-25T04:14:23.525Z,16.58
2022-08-25T04:16:53.043Z,16.55
2022-08-25T04:19:22.087Z,16.54
2022-08-25T04:21:51.750Z,16.52
2022-08-25T04:24:24.829Z,16.51
2022-08-25T04:26:53.789Z,16.50
2022-08-25T04:29:24.210Z,16.48
2022-08-25T04:31:53.574Z,16.46
2022-08-25T04:34:30.087Z,16.44
2022-08-25T04:37:01.837Z,16.44
2022-08-25T04:39:30.141Z,16.42
2022-08-25T04:42:00.558Z,16.41
2022-08-25T04:44:29.437Z,16.43
2022-08-25T04:46:57.930Z,16.44
2022-08-25T04:49:26.303Z,16.44
2022-08-25T04:51:54.296Z,16.44
2022-08-25T04:54:26.326Z,16.43
2022-08-25T04:56:58.315Z,16.43
2022-08-25T04:59:30.390Z,16.44
2022-08-25T05:02:02.367Z,16.46
2022-08-25T05:04:31.181Z,16.49
2022-08-25T05:06:59.694Z,16.51
2022-08-25T05:09:29.251Z,16.53
2022-08-25T05:12:01.114Z,16.53
2022-08-25T05:14:30.222Z,16.51
2022-08-25T05:16:59.111Z,16.50
2022-08-25T05:19:27.271Z,16.49
2022-08-25T05:21:57.918Z,16.50
2022-08-25T05:24:26.926Z,16.51
2022-08-25T05:26:56.491Z,16.50
2022-08-25T05:29:24.478Z,16.48
2022-08-25T05:31:53.469Z,16.48
2022-08-25T05:34:22.247Z,16.46
2022-08-25T05:36:51.487Z,16.45
2022-08-25T05:39:19.603Z,16.45
2022-08-25T05:41:47.666Z,16.45
2022-08-25T05:44:20.863Z,16.46
2022-08-25T05:46:49.767Z,16.51
2022-08-25T05:49:17.726Z,16.54
2022-08-25T05:51:45.727Z,16.59
2022-08-25T05:54:13.747Z,16.63
2022-08-25T05:56:41.809Z,16.67
2022-08-25T05:59:10.658Z,16.70
2022-08-25T06:01:57.666Z,16.72
2022-08-25T06:04:25.929Z,16.76
2022-08-25T06:06:55.732Z,16.81
2022-08-25T06:09:39.219Z,16.85
2022-08-25T06:12:08.063Z,16.88
2022-08-25T06:14:36.998Z,16.91
2022-08-25T06:17:06.659Z,16.92
2022-08-25T06:19:34.846Z,16.95
2022-08-25T06:22:06.288Z,16.97
2022-08-25T06:24:34.732Z,16.99
2022-08-25T06:27:03.574Z,17.00
2022-08-25T06:29:31.725Z,17.04
2022-08-25T06:31:59.760Z,17.06
2022-08-25T06:34:29.272Z,17.09
2022-08-25T06:36:57.275Z,17.12
2022-08-25T06:39:25.311Z,17.17
2022-08-25T06:41:54.086Z,17.21
2022-08-25T06:44:22.585Z,17.26
2022-08-25T06:46:50.685Z,17.28
2022-08-25T06:49:18.810Z,17.31
2022-08-25T06:51:48.206Z,17.33
2022-08-25T06:54:16.306Z,17.36
2022-08-25T06:56:44.645Z,17.38
2022-08-25T06:59:12.858Z,17.40
2022-08-25T07:01:41.153Z,17.37
2022-08-25T07:04:12.892Z,17.32
2022-08-25T07:06:43.300Z,17.23
2022-08-25T07:09:13.548Z,17.17
2022-08-25T07:11:42.694Z,17.09
2022-08-25T07:14:13.509Z,17.04
2022-08-25T07:16:47.209Z,17.01
2022-08-25T07:19:20.873Z,16.98
2022-08-25T07:21:52.001Z,16.98
2022-08-25T07:24:22.032Z,16.96
2022-08-25T07:26:50.438Z,16.93
2022-08-25T07:32:09.239Z,16.90
2022-08-25T07:34:56.341Z,16.88
2022-08-25T07:37:48.925Z,16.88
2022-08-25T07:40:18.266Z,16.87
2022-08-25T07:42:46.663Z,16.88
2022-08-25T07:45:20.526Z,16.93
2022-08-25T07:47:51.648Z,17.01
2022-08-25T07:50:21.961Z,17.05
2022-08-25T07:52:55.084Z,17.12
2022-08-25T07:55:26.008Z,17.14
2022-08-25T07:57:57.422Z,17.16
2022-08-25T08:00:28.317Z,17.20
2022-08-25T08:02:56.736Z,17.28
2022-08-25T08:05:25.239Z,17.41
2022-08-25T08:07:53.622Z,17.53
2022-08-25T08:10:47.987Z,17.63
2022-08-25T08:13:18.091Z,17.73
2022-08-25T08:15:47.619Z,17.82
2022-08-25T08:18:16.048Z,17.90
2022-08-25T08:20:46.229Z,17.97
2022-08-25T08:23:14.334Z,18.04
2022-08-25T08:25:42.309Z,18.09
2022-08-25T08:28:11.010Z,18.13
2022-08-25T08:30:40.512Z,18.14
2022-08-25T08:33:23.530Z,18.21
2022-08-25T08:36:05.139Z,18.27
2022-08-25T08:38:34.606Z,18.27
2022-08-25T08:41:30.549Z,18.29
2022-08-25T08:44:09.749Z,18.35
2022-08-25T08:46:47.779Z,18.41
2022-08-25T08:49:33.034Z,18.48
2022-08-25T08:52:04.163Z,18.54
2022-08-25T08:54:36.267Z,18.62
2022-08-25T08:57:10.662Z,18.69
2022-08-25T08:59:48.697Z,18.70
2022-08-25T09:03:03.331Z,18.77
2022-08-25T09:05:46.620Z,18.84
2022-08-25T09:08:20.160Z,18.89
2022-08-25T09:10:58.802Z,18.95
2022-08-25T09:13:38.526Z,18.98
2022-08-25T09:16:34.806Z,19.03
2022-08-25T09:19:21.249Z,19.10
2022-08-25T09:21:58.902Z,19.11
2022-08-25T09:24:42.290Z,19.17
2022-08-25T09:27:20.083Z,19.24
2022-08-25T09:30:00.301Z,19.32
2022-08-25T09:32:31.846Z,19.37
2022-08-25T09:35:02.229Z,19.34
2022-08-25T09:37:31.672Z,19.34
2022-08-25T09:40:00.446Z,19.34
2022-08-25T09:42:50.372Z,19.40
2022-08-25T09:45:42.442Z,19.46
2022-08-25T09:48:25.903Z,19.51
2022-08-25T09:51:00.732Z,19.55
2022-08-25T09:53:33.886Z,19.58
2022-08-25T09:56:07.482Z,19.67
2022-08-25T09:58:35.579Z,19.68
2022-08-25T10:01:08.390Z,19.65
2022-08-25T10:03:36.749Z,19.60
2022-08-25T10:06:07.980Z,19.44
2022-08-25T10:08:57.444Z,19.27
2022-08-25T10:11:37.966Z,19.24
2022-08-25T10:14:18.402Z,19.28
2022-08-25T10:16:48.051Z,19.35
2022-08-25T10:19:29.049Z,19.45
2022-08-25T10:22:10.714Z,19.48
2022-08-25T10:24:44.248Z,19.59
2022-08-25T10:27:23.523Z,19.66
2022-08-25T10:30:16.115Z,19.56
2022-08-25T10:33:06.588Z,19.57
2022-08-25T10:35:46.537Z,19.54
2022-08-25T10:38:36.096Z,19.55
2022-08-25T10:41:17.629Z,19.62
2022-08-25T10:43:50.926Z,19.66
2022-08-25T10:46:31.393Z,19.67
2022-08-25T10:49:04.737Z,19.74
2022-08-25T10:51:41.335Z,19.69
2022-08-25T10:54:21.363Z,19.70
2022-08-25T10:57:01.819Z,19.68
2022-08-25T10:59:49.658Z,19.63
2022-08-25T11:02:57.273Z,19.60
2022-08-25T11:05:29.703Z,19.59
2022-08-25T11:08:06.774Z,19.59
2022-08-25T11:10:42.481Z,19.68
2022-08-25T11:13:19.013Z,19.79
2022-08-25T11:16:13.606Z,19.74
2022-08-25T11:18:50.776Z,19.71
2022-08-25T11:21:25.136Z,19.74
2022-08-25T11:24:00.353Z,19.78
2022-08-25T11:26:36.895Z,19.86
2022-08-25T11:29:12.879Z,19.89
2022-08-25T11:31:44.491Z,19.94
2022-08-25T11:34:19.538Z,19.98
2022-08-25T11:36:53.215Z,20.01
2022-08-25T11:39:41.056Z,20.12
2022-08-25T11:42:20.499Z,20.18
2022-08-25T11:44:59.316Z,20.29
2022-08-25T11:47:44.992Z,20.43
2022-08-25T11:50:30.359Z,20.61
2022-08-25T11:53:01.279Z,20.79
2022-08-25T11:55:48.348Z,20.92
2022-08-25T11:58:35.659Z,21.07
2022-08-25T12:01:07.865Z,21.13
2022-08-25T12:03:53.388Z,21.29
2022-08-25T12:06:29.546Z,21.38
2022-08-25T12:09:21.119Z,21.59
2022-08-25T12:11:55.317Z,21.89
2022-08-25T12:14:45.486Z,22.15
2022-08-25T12:17:25.341Z,22.09
2022-08-25T12:19:56.816Z,22.00
2022-08-25T12:23:00.120Z,22.02
2022-08-25T12:25:55.221Z,21.75
2022-08-25T12:28:44.034Z,21.36
2022-08-25T12:31:25.949Z,21.33
2022-08-25T12:34:10.457Z,21.50
2022-08-25T12:36:40.794Z,21.60
2022-08-25T12:39:18.273Z,21.62
2022-08-25T12:41:56.610Z,21.66
2022-08-25T12:44:44.501Z,21.84
2022-08-25T12:47:32.348Z,22.12
2022-08-25T12:50:37.389Z,22.41
2022-08-25T12:53:12.682Z,22.35
2022-08-25T12:55:47.722Z,22.16
2022-08-25T12:58:17.111Z,22.09
2022-08-25T13:01:09.439Z,22.26
2022-08-25T13:04:01.678Z,22.51
2022-08-25T13:06:54.714Z,22.64
2022-08-25T13:10:01.970Z,22.71
2022-08-25T13:12:35.183Z,22.75
2022-08-25T13:15:03.371Z,22.60
2022-08-25T13:17:35.389Z,22.47
2022-08-25T13:20:19.015Z,22.45
2022-08-25T13:22:55.156Z,22.41
2022-08-25T13:25:32.126Z,22.50
2022-08-25T13:28:06.542Z,22.64
2022-08-25T13:30:40.079Z,22.70
2022-08-25T13:33:20.351Z,22.58
2022-08-25T13:36:11.183Z,22.50
2022-08-25T13:38:45.783Z,22.45
2022-08-25T13:41:20.397Z,22.53
2022-08-25T13:43:48.828Z,22.61
2022-08-25T13:46:21.059Z,22.63
2022-08-25T13:48:50.087Z,22.58
2022-08-25T13:51:23.050Z,22.64
2022-08-25T13:53:56.420Z,22.86
2022-08-25T13:56:38.498Z,22.83
2022-08-25T13:59:23.622Z,22.79
2022-08-25T14:01:52.605Z,22.77
2022-08-25T14:04:28.986Z,22.73
2022-08-25T14:07:14.770Z,22.67
2022-08-25T14:09:52.940Z,22.64
2022-08-25T14:12:37.131Z,22.65
2022-08-25T14:15:32.498Z,22.77
2022-08-25T14:18:04.496Z,22.78
2022-08-25T14:20:33.865Z,22.76
2022-08-25T14:23:10.278Z,22.65
2022-08-25T14:25:42.387Z,22.49
2022-08-25T14:28:14.796Z,22.53
2022-08-25T14:30:47.340Z,22.57
2022-08-25T14:33:17.148Z,22.65
2022-08-25T14:35:49.140Z,22.71
2022-08-25T14:38:18.320Z,22.76
2022-08-25T14:40:48.442Z,22.62
2022-08-25T14:43:23.805Z,22.75
2022-08-25T14:46:00.553Z,22.87
2022-08-25T14:48:34.529Z,22.89
2022-08-25T14:51:06.259Z,22.88
2022-08-25T14:53:34.559Z,22.61
2022-08-25T14:56:08.622Z,22.50
2022-08-25T14:58:48.340Z,22.51
2022-08-25T15:01:29.384Z,22.46
2022-08-25T15:04:03.466Z,22.60
2022-08-25T15:06:31.854Z,22.72
2022-08-25T15:09:11.713Z,22.69
2022-08-25T15:11:43.913Z,22.58
2022-08-25T15:14:15.563Z,22.52
2022-08-25T15:16:47.315Z,22.59
2022-08-25T15:19:19.502Z,22.65
2022-08-25T15:21:49.617Z,22.61
2022-08-25T15:24:19.588Z,22.76
2022-08-25T15:29:23.546Z,22.92
2022-08-25T15:31:52.150Z,22.90
2022-08-25T15:34:20.492Z,22.91
2022-08-25T15:36:49.100Z,23.20
2022-08-25T15:39:18.934Z,23.23
2022-08-25T15:41:49.553Z,23.25
2022-08-25T15:44:17.864Z,23.46
2022-08-25T15:46:50.063Z,23.64
2022-08-25T15:49:20.649Z,23.69
2022-08-25T15:51:52.541Z,23.63
2022-08-25T15:54:21.616Z,23.77
2022-08-25T15:56:51.699Z,23.82
2022-08-25T15:59:21.642Z,23.84
2022-08-25T16:01:53.531Z,23.86
2022-08-25T16:04:22.391Z,23.69
2022-08-25T16:06:51.933Z,23.51
2022-08-25T16:09:23.113Z,23.43
2022-08-25T16:11:57.627Z,23.32
2022-08-25T16:14:28.742Z,23.33
2022-08-25T16:16:58.568Z,23.42
2022-08-25T16:19:28.329Z,23.45
2022-08-25T16:21:56.909Z,23.35
2022-08-25T16:24:25.317Z,23.37
2022-08-25T16:26:55.505Z,23.29
2022-08-25T16:29:24.169Z,23.08
2022-08-25T16:31:53.393Z,22.93
2022-08-25T16:34:24.523Z,22.92
2022-08-25T16:36:53.062Z,22.90
2022-08-25T16:39:21.660Z,22.78
2022-08-25T16:41:53.110Z,22.84
2022-08-25T16:44:24.467Z,22.84
2022-08-25T16:46:55.983Z,22.86
2022-08-25T16:49:25.444Z,22.90
2022-08-25T16:51:57.511Z,22.77
2022-08-25T16:54:43.918Z,22.79
2022-08-25T16:57:12.360Z,22.84
2022-08-25T16:59:43.767Z,22.80
2022-08-25T17:02:12.257Z,22.81
2022-08-25T17:04:40.949Z,22.79
2022-08-25T17:07:09.112Z,22.92
2022-08-25T17:09:37.292Z,23.01
2022-08-25T17:12:06.058Z,23.04
2022-08-25T17:14:34.577Z,23.10
2022-08-25T17:17:07.161Z,23.38
2022-08-25T17:19:35.702Z,23.55
2022-08-25T17:22:04.293Z,23.72
2022-08-25T17:24:35.183Z,23.79
2022-08-25T17:27:03.421Z,23.91
2022-08-25T17:29:31.712Z,24.02
2022-08-25T17:31:59.822Z,23.95
2022-08-25T17:34:30.967Z,24.06
2022-08-25T17:37:00.441Z,24.11
2022-08-25T17:39:28.890Z,23.86
2022-08-25T17:41:57.362Z,23.70
2022-08-25T17:44:27.491Z,23.80
2022-08-25T17:46:55.629Z,24.02
2022-08-25T17:49:25.567Z,23.99
2022-08-25T17:51:55.063Z,23.98
2022-08-25T17:54:23.122Z,24.04
2022-08-25T17:56:52.835Z,24.09
2022-08-25T17:59:20.968Z,24.15
2022-08-25T18:01:55.578Z,24.06
2022-08-25T18:04:23.931Z,23.96
2022-08-25T18:06:58.652Z,23.34
2022-08-25T18:09:26.760Z,22.57
2022-08-25T18:11:55.199Z,21.91
2022-08-25T18:14:25.525Z,21.35
2022-08-25T18:16:54.588Z,20.87
2022-08-25T18:19:22.944Z,20.47
2022-08-25T18:21:51.895Z,20.17
2022-08-25T18:24:23.711Z,19.91
2022-08-25T18:26:52.791Z,19.73
2022-08-25T18:29:21.230Z,19.59
2022-08-25T18:31:51.878Z,19.50
2022-08-25T18:34:22.149Z,19.40
2022-08-25T18:36:50.650Z,19.31
2022-08-25T18:39:36.872Z,19.19
2022-08-25T18:42:08.661Z,19.02
2022-08-25T18:44:37.531Z,18.91
2022-08-25T18:47:07.463Z,18.81
2022-08-25T18:49:37.200Z,18.70
2022-08-25T18:52:06.038Z,18.61
2022-08-25T18:54:36.046Z,18.54
2022-08-25T18:57:04.767Z,18.47
2022-08-25T18:59:38.272Z,18.39
2022-08-25T19:02:06.650Z,18.32
2022-08-25T19:04:35.135Z,18.29
2022-08-25T19:07:04.428Z,18.22
2022-08-25T19:09:36.875Z,18.17
2022-08-25T19:12:06.014Z,18.10
2022-08-25T19:14:34.154Z,18.02
2022-08-25T19:17:03.868Z,17.97
2022-08-25T19:19:31.985Z,17.94
2022-08-25T19:22:00.260Z,17.90
2022-08-25T19:24:28.639Z,17.87
2022-08-25T19:26:57.186Z,17.84
2022-08-25T19:29:30.466Z,17.81
2022-08-25T19:32:01.103Z,17.78
2022-08-25T19:34:38.179Z,17.74
2022-08-25T19:37:07.451Z,17.72
2022-08-25T19:39:39.106Z,17.69
2022-08-25T19:42:37.202Z,17.67
2022-08-25T19:44:58.993Z,17.66
2022-08-25T19:47:27.309Z,17.64
2022-08-25T19:49:58.416Z,17.64
2022-08-25T19:52:26.903Z,17.63
2022-08-25T19:54:57.040Z,17.61
2022-08-25T19:57:27.910Z,17.60
2022-08-25T20:00:06.804Z,17.57
2022-08-25T20:02:35.010Z,17.56
2022-08-25T20:05:05.987Z,17.55
2022-08-25T20:07:34.455Z,17.53
2022-08-25T20:10:03.512Z,17.51
2022-08-25T20:12:31.721Z,17.49
2022-08-25T20:15:01.260Z,17.47
2022-08-25T20:17:30.328Z,17.43
2022-08-25T20:20:00.070Z,17.42
2022-08-25T20:22:32.752Z,17.40
2022-08-25T20:25:13.526Z,17.39
2022-08-25T20:27:44.227Z,17.37
2022-08-25T20:30:16.590Z,17.35
2022-08-25T20:32:45.704Z,17.33
2022-08-25T20:35:14.539Z,17.35
2022-08-25T20:37:46.372Z,17.33
2022-08-25T20:40:17.246Z,17.31
2022-08-25T20:42:48.450Z,17.31
2022-08-25T20:45:18.558Z,17.28
2022-08-25T20:47:46.697Z,17.26
2022-08-25T20:50:15.041Z,17.26
2022-08-25T20:52:44.654Z,17.25
2022-08-25T20:55:13.500Z,17.23
2022-08-25T20:57:41.640Z,17.21
2022-08-25T21:00:11.457Z,17.18
2022-08-25T21:02:39.620Z,17.18
2022-08-25T21:05:09.245Z,17.16
2022-08-25T21:07:37.298Z,17.15
2022-08-25T21:10:10.280Z,17.13
2022-08-25T21:12:39.258Z,17.12
2022-08-25T21:15:09.027Z,17.09
2022-08-25T21:17:37.118Z,17.06
2022-08-25T21:20:05.940Z,17.06
2022-08-25T21:22:35.423Z,17.04
2022-08-25T21:25:03.808Z,17.04
2022-08-25T21:27:33.391Z,17.02
2022-08-25T21:30:02.722Z,17.02
2022-08-25T21:32:30.847Z,17.01
2022-08-25T21:34:59.031Z,17.00
2022-08-25T21:37:27.909Z,16.99
2022-08-25T21:39:56.228Z,16.97
2022-08-25T21:42:25.116Z,16.96
2022-08-25T21:44:54.760Z,16.94
2022-08-25T21:47:23.403Z,16.94
2022-08-25T21:49:51.907Z,16.93
2022-08-25T21:52:20.913Z,16.90
2022-08-25T21:54:49.027Z,16.90
2022-08-25T21:57:19.123Z,16.88
2022-08-25T21:59:51.625Z,16.87
2022-08-25T22:02:23.243Z,16.84
2022-08-25T22:04:53.581Z,16.83
2022-08-25T22:07:25.060Z,16.79
2022-08-25T22:09:54.117Z,16.79
2022-08-25T22:12:22.417Z,16.75
2022-08-25T22:14:50.799Z,16.73
2022-08-25T22:17:21.053Z,16.72
2022-08-25T22:19:53.623Z,16.67
2022-08-25T22:22:22.359Z,16.65
2022-08-25T22:24:50.526Z,16.64
2022-08-25T22:27:19.117Z,16.62
2022-08-25T22:29:52.151Z,16.60
2022-08-25T22:32:22.254Z,16.58
2022-08-25T22:34:50.648Z,16.56
2022-08-25T22:37:18.947Z,16.55
2022-08-25T22:39:47.546Z,16.54
2022-08-25T22:42:16.452Z,16.52
2022-08-25T22:44:44.572Z,16.51
2022-08-25T22:47:12.766Z,16.51
2022-08-25T22:49:42.589Z,16.48
2022-08-25T22:52:12.958Z,16.45
2022-08-25T22:54:42.252Z,16.44
2022-08-25T22:57:11.068Z,16.42
2022-08-25T22:59:39.690Z,16.39
2022-08-25T23:02:08.491Z,16.37
2022-08-25T23:04:37.185Z,16.34
2022-08-25T23:07:11.684Z,16.33
2022-08-25T23:09:40.081Z,16.32
2022-08-25T23:12:08.758Z,16.29
2022-08-25T23:14:37.379Z,16.30
2022-08-25T23:17:07.427Z,16.27
2022-08-25T23:19:36.068Z,16.21
2022-08-25T23:22:10.358Z,16.16
2022-08-25T23:24:43.090Z,16.08
2022-08-25T23:27:13.515Z,16.05
2022-08-25T23:29:44.206Z,16.01
2022-08-25T23:32:14.352Z,15.99
2022-08-25T23:34:46.529Z,15.95
2022-08-25T23:37:18.534Z,15.92
2022-08-25T23:39:49.817Z,15.87
2022-08-25T23:42:19.295Z,15.85
2022-08-25T23:44:47.591Z,15.81
2022-08-25T23:47:15.950Z,15.75
2022-08-25T23:49:44.003Z,15.70
2022-08-25T23:52:12.395Z,15.64
2022-08-25T23:54:40.581Z,15.59
2022-08-25T23:57:10.288Z,15.54
2022-08-25T23:59:38.483Z,15.49
